< < Back
Terminal Aerodrome Forecast


Current Version              Previous Versions:   1  2  3  4  5  6  7  8  9  

Terminal Aerodrome Forecast

072
FTUS42 KCAE 061739
TAFAGS
TAF
KAGS 061739Z 0618/0718 31010G16KT P6SM SCT060
     FM062300 31007KT P6SM SCT060
     FM071600 29009G15KT P6SM SCT050=

Latest METAR

212
SAUS70 KWBC 062000 RRB
MTRAGS
METAR KAGS 061953Z 28014G17KT 10SM CLR 23/07 A2982 RMK AO2 SLP096
T02330067


USA.gov is the U.S. government's official web portal to all federal, state and local government web resources and services.